createdAt,value
2019-05-29T00:00:26.745Z,11.9
2019-05-29T00:01:26.724Z,12
2019-05-29T00:02:26.762Z,12
2019-05-29T00:03:26.867Z,12
2019-05-29T00:04:29.189Z,12
2019-05-29T00:05:26.940Z,12.1
2019-05-29T00:06:26.974Z,12.1
2019-05-29T00:07:27.028Z,12.1
2019-05-29T00:08:27.106Z,12.1
2019-05-29T00:09:27.096Z,12
2019-05-29T00:10:27.128Z,12
2019-05-29T00:11:27.126Z,12.1
2019-05-29T00:12:27.143Z,12.1
2019-05-29T00:13:27.204Z,12.2
2019-05-29T00:14:27.814Z,12.3
2019-05-29T00:15:27.283Z,12.4
2019-05-29T00:16:27.304Z,12.5
2019-05-29T00:17:27.368Z,12.5
2019-05-29T00:18:27.452Z,12.5
2019-05-29T00:19:27.500Z,12.6
2019-05-29T00:20:27.518Z,12.7
2019-05-29T00:21:27.527Z,12.8
2019-05-29T00:22:30.049Z,12.9
2019-05-29T00:23:27.630Z,13
2019-05-29T00:24:27.707Z,13
2019-05-29T00:25:27.735Z,13.1
2019-05-29T00:26:27.745Z,13.1
2019-05-29T00:27:27.789Z,13.2
2019-05-29T00:28:27.777Z,13.2
2019-05-29T00:29:27.842Z,13.2
2019-05-29T00:30:27.859Z,13.2
2019-05-29T00:31:27.863Z,13.2
2019-05-29T00:32:27.923Z,13.4
2019-05-29T00:33:31.070Z,13.5
2019-05-29T00:34:27.930Z,13.5
2019-05-29T00:35:27.995Z,13.6
2019-05-29T00:36:28.007Z,13.6
2019-05-29T00:37:28.074Z,13.6
2019-05-29T00:38:28.099Z,13.6
2019-05-29T00:39:28.124Z,13.6
2019-05-29T00:40:28.133Z,13.6
2019-05-29T00:41:28.172Z,13.6
2019-05-29T00:42:28.224Z,13.5
2019-05-29T00:43:28.209Z,13.4
2019-05-29T00:44:34.119Z,13.3
2019-05-29T00:45:28.267Z,13.3
2019-05-29T00:46:28.319Z,13.3
2019-05-29T00:47:28.343Z,13.3
2019-05-29T00:48:28.320Z,13.3
2019-05-29T00:49:28.351Z,13.3
2019-05-29T00:50:28.412Z,13.3
2019-05-29T00:51:28.421Z,13.3
2019-05-29T00:52:28.453Z,13.2
2019-05-29T00:53:28.481Z,13.3
2019-05-29T00:54:28.455Z,13.3
2019-05-29T00:55:28.462Z,13.3
2019-05-29T00:56:28.501Z,13.2
2019-05-29T00:57:28.495Z,13.2
2019-05-29T00:58:28.519Z,13.2
2019-05-29T00:59:28.535Z,13.2
2019-05-29T01:00:28.586Z,13.1
2019-05-29T01:01:28.570Z,13.1
2019-05-29T01:02:28.590Z,13.1
2019-05-29T01:03:28.684Z,13.1
2019-05-29T01:04:28.578Z,13.1
2019-05-29T01:05:28.618Z,13.1
2019-05-29T01:06:28.593Z,13.3
2019-05-29T01:07:28.603Z,13.2
2019-05-29T01:08:28.602Z,13.2
2019-05-29T01:09:28.606Z,13.1
2019-05-29T01:10:28.663Z,13.1
2019-05-29T01:11:28.619Z,13.1
2019-05-29T01:12:28.660Z,13.1
2019-05-29T01:13:28.755Z,13
2019-05-29T01:14:28.995Z,13.1
2019-05-29T01:15:28.891Z,13.1
2019-05-29T01:16:28.863Z,13.1
2019-05-29T01:17:28.905Z,13.1
2019-05-29T01:18:28.979Z,13.1
2019-05-29T01:19:29.049Z,13.1
2019-05-29T01:20:29.102Z,13.2
2019-05-29T01:21:29.164Z,13.1
2019-05-29T01:22:29.134Z,13
2019-05-29T01:23:29.125Z,13
2019-05-29T01:24:29.179Z,13.1
2019-05-29T01:25:29.329Z,13
2019-05-29T01:26:29.317Z,13.1
2019-05-29T01:27:29.382Z,13.1
2019-05-29T01:28:29.442Z,13.1
2019-05-29T01:29:29.455Z,13.1
2019-05-29T01:30:29.540Z,13.2
2019-05-29T01:31:29.567Z,13.2
2019-05-29T01:32:29.624Z,13.2
2019-05-29T01:33:29.689Z,13.2
2019-05-29T01:34:29.784Z,13.2
2019-05-29T01:35:29.837Z,13.1
2019-05-29T01:36:29.805Z,13.1
2019-05-29T01:37:29.836Z,13.1
2019-05-29T01:38:29.917Z,13.1
2019-05-29T01:39:29.986Z,13.2
2019-05-29T01:40:31.019Z,13.2
2019-05-29T01:41:30.057Z,13.2
2019-05-29T01:42:30.106Z,13.2
2019-05-29T01:43:30.173Z,13.2
2019-05-29T01:44:30.260Z,13.2
2019-05-29T01:45:30.290Z,13.1
2019-05-29T01:46:30.368Z,12.9
2019-05-29T01:47:30.343Z,12.7
2019-05-29T01:48:30.393Z,12.7
2019-05-29T01:49:30.467Z,12.7
2019-05-29T01:50:30.504Z,12.6
2019-05-29T01:51:30.602Z,12.5
2019-05-29T01:52:30.618Z,12.5
2019-05-29T01:53:30.627Z,12.5
2019-05-29T01:54:30.692Z,12.6
2019-05-29T01:55:31.433Z,12.7
2019-05-29T01:56:30.741Z,12.7
2019-05-29T01:57:30.706Z,12.7
2019-05-29T01:58:30.764Z,12.7
2019-05-29T01:59:30.788Z,12.6
2019-05-29T02:00:30.859Z,12.7
2019-05-29T02:01:30.906Z,12.8
2019-05-29T02:02:30.914Z,12.8
2019-05-29T02:03:30.960Z,12.8
2019-05-29T02:04:30.951Z,12.9
2019-05-29T02:05:31.106Z,12.9
2019-05-29T02:06:31.061Z,12.9
2019-05-29T02:07:31.091Z,12.9
2019-05-29T02:08:31.055Z,12.9
2019-05-29T02:09:31.084Z,12.9
2019-05-29T02:10:31.068Z,12.9
2019-05-29T02:11:32.246Z,12.9
2019-05-29T02:12:31.166Z,12.9
2019-05-29T02:13:31.146Z,12.9
2019-05-29T02:14:31.240Z,12.9
2019-05-29T02:15:33.600Z,12.8
2019-05-29T02:16:31.277Z,12.7
2019-05-29T02:17:31.483Z,12.7
2019-05-29T02:18:31.347Z,12.6
2019-05-29T02:19:31.451Z,12.6
2019-05-29T02:20:31.427Z,12.6
2019-05-29T02:21:31.470Z,12.5
2019-05-29T02:22:31.521Z,12.4
2019-05-29T02:23:31.542Z,12.3
2019-05-29T02:24:31.611Z,12.3
2019-05-29T02:25:31.633Z,12.3
2019-05-29T02:26:31.657Z,12.2
2019-05-29T02:27:31.701Z,12.2
2019-05-29T02:28:31.664Z,12.2
2019-05-29T02:29:31.706Z,12.1
2019-05-29T02:30:31.753Z,12
2019-05-29T02:31:31.788Z,12
2019-05-29T02:32:31.847Z,11.9
2019-05-29T02:33:31.843Z,12
2019-05-29T02:34:31.920Z,12.1
2019-05-29T02:35:31.955Z,12.2
2019-05-29T02:36:31.943Z,12.2
2019-05-29T02:37:31.954Z,12.3
2019-05-29T02:38:32.008Z,12.3
2019-05-29T02:39:32.012Z,12.1
2019-05-29T02:40:32.021Z,11.9
2019-05-29T02:41:32.054Z,12.1
2019-05-29T02:42:32.045Z,12.1
2019-05-29T02:43:32.143Z,12.1
2019-05-29T02:44:32.139Z,12.1
2019-05-29T02:45:52.440Z,12.2
2019-05-29T02:46:32.191Z,12.2
2019-05-29T02:47:32.206Z,12.1
2019-05-29T02:48:32.236Z,12
2019-05-29T02:49:32.248Z,12
2019-05-29T02:50:32.298Z,12.1
2019-05-29T02:51:32.304Z,12
2019-05-29T02:52:32.298Z,11.9
2019-05-29T02:53:32.296Z,12
2019-05-29T02:54:32.528Z,12
2019-05-29T02:55:32.375Z,11.9
2019-05-29T02:56:32.333Z,11.9
2019-05-29T02:57:32.341Z,11.8
2019-05-29T02:58:32.398Z,11.9
2019-05-29T02:59:32.451Z,11.9
2019-05-29T03:00:32.448Z,11.8
2019-05-29T03:01:32.394Z,11.7
2019-05-29T03:02:32.395Z,11.6
2019-05-29T03:03:39.085Z,11.7
2019-05-29T03:04:32.912Z,11.7
2019-05-29T03:05:32.436Z,11.8
2019-05-29T03:06:32.562Z,11.8
2019-05-29T03:07:32.708Z,11.9
2019-05-29T03:08:34.234Z,11.9
2019-05-29T03:09:32.796Z,11.9
2019-05-29T03:10:33.071Z,11.9
2019-05-29T03:11:33.412Z,11.9
2019-05-29T03:12:33.650Z,11.9
2019-05-29T03:13:33.606Z,11.8
2019-05-29T03:14:34.573Z,11.7
2019-05-29T03:15:33.704Z,11.7
2019-05-29T03:16:34.624Z,11.7
2019-05-29T03:17:33.772Z,11.8
2019-05-29T03:18:34.694Z,11.8
2019-05-29T03:19:34.512Z,11.8
2019-05-29T03:20:34.414Z,11.8
2019-05-29T03:21:34.575Z,11.8
2019-05-29T03:22:33.777Z,11.8
2019-05-29T03:23:33.858Z,11.7
2019-05-29T03:24:34.904Z,11.8
2019-05-29T03:25:34.887Z,11.8
2019-05-29T03:26:34.839Z,11.8
2019-05-29T03:27:33.935Z,11.9
2019-05-29T03:28:34.839Z,11.9
2019-05-29T03:29:34.263Z,11.9
2019-05-29T03:30:38.456Z,11.9
2019-05-29T03:31:39.234Z,11.9
2019-05-29T03:32:41.640Z,11.9
2019-05-29T03:33:40.434Z,12
2019-05-29T03:34:39.008Z,12
2019-05-29T03:35:42.910Z,12
2019-05-29T03:36:39.212Z,11.9
2019-05-29T03:37:34.432Z,11.9
2019-05-29T03:38:34.868Z,12
2019-05-29T03:39:34.560Z,12
2019-05-29T03:40:35.182Z,12
2019-05-29T03:41:34.844Z,12
2019-05-29T03:42:34.421Z,12
2019-05-29T03:43:35.851Z,12
2019-05-29T03:44:35.372Z,12
2019-05-29T03:45:35.656Z,11.9
2019-05-29T03:46:40.592Z,12
2019-05-29T03:47:35.042Z,11.9
2019-05-29T03:48:34.486Z,11.9
2019-05-29T03:49:35.148Z,12
2019-05-29T03:50:34.871Z,12
2019-05-29T03:51:34.963Z,12
2019-05-29T03:52:34.778Z,12
2019-05-29T03:53:36.073Z,12
2019-05-29T03:54:35.449Z,12
2019-05-29T03:55:35.796Z,12
2019-05-29T03:56:34.848Z,12
2019-05-29T03:57:35.800Z,12.1
2019-05-29T03:58:35.053Z,12.1
2019-05-29T03:59:35.319Z,12.1
2019-05-29T04:00:41.107Z,12.2
2019-05-29T04:01:35.462Z,12.2
2019-05-29T04:02:35.487Z,12.2
2019-05-29T04:03:35.544Z,12.2
2019-05-29T04:04:36.096Z,12.2
2019-05-29T04:05:35.448Z,12.1
2019-05-29T04:06:37.504Z,12.2
2019-05-29T04:07:35.607Z,12.1
2019-05-29T04:08:35.668Z,12.1
2019-05-29T04:09:35.335Z,12.1
2019-05-29T04:10:37.322Z,12.1
2019-05-29T04:11:35.527Z,12.1
2019-05-29T04:12:35.463Z,12.2
2019-05-29T04:13:36.133Z,12.2
2019-05-29T04:14:35.634Z,12.2
2019-05-29T04:15:36.414Z,12.2
2019-05-29T04:16:51.996Z,12.2
2019-05-29T04:17:35.432Z,12.2
2019-05-29T04:18:35.912Z,12.2
2019-05-29T04:19:36.806Z,12.2
2019-05-29T04:20:36.019Z,12.2
2019-05-29T04:21:36.231Z,12.2
2019-05-29T04:22:36.842Z,12.1
2019-05-29T04:23:36.186Z,12
2019-05-29T04:24:35.964Z,12
2019-05-29T04:25:39.535Z,11.8
2019-05-29T04:26:36.156Z,11.6
2019-05-29T04:27:35.948Z,11.7
2019-05-29T04:28:37.260Z,11.7
2019-05-29T04:29:36.085Z,11.8
2019-05-29T04:30:36.461Z,11.7
2019-05-29T04:31:36.514Z,11.8
2019-05-29T04:32:36.567Z,11.7
2019-05-29T04:33:36.768Z,11.7
2019-05-29T04:34:36.226Z,11.7
2019-05-29T04:35:36.782Z,11.6
2019-05-29T04:36:36.825Z,11.6
2019-05-29T04:37:36.871Z,11.7
2019-05-29T04:38:36.196Z,11.6
2019-05-29T04:39:36.919Z,11.5
2019-05-29T04:40:37.198Z,11.4
2019-05-29T04:41:37.027Z,11.4
2019-05-29T04:42:37.345Z,11.3
2019-05-29T04:43:37.376Z,11.2
2019-05-29T04:44:36.322Z,11.1
2019-05-29T04:45:38.051Z,11.1
2019-05-29T04:46:36.332Z,11.1
2019-05-29T04:47:37.195Z,11.1
2019-05-29T04:48:37.422Z,11.1
2019-05-29T04:49:36.216Z,11
2019-05-29T04:50:37.657Z,11.1
2019-05-29T04:51:37.153Z,11.2
2019-05-29T04:52:37.624Z,11.3
2019-05-29T04:53:37.492Z,11.3
2019-05-29T04:54:37.396Z,11.2
2019-05-29T04:55:36.872Z,11
2019-05-29T04:56:36.898Z,11.1
2019-05-29T04:57:37.084Z,11
2019-05-29T04:58:36.929Z,10.9
2019-05-29T04:59:37.009Z,10.8
2019-05-29T05:00:35.693Z,10.6
2019-05-29T05:01:35.746Z,10.6
2019-05-29T05:02:35.815Z,10.7
2019-05-29T05:03:35.871Z,10.4
2019-05-29T05:04:37.249Z,10.5
2019-05-29T05:05:35.993Z,10.6
2019-05-29T05:06:36.007Z,10.7
2019-05-29T05:07:36.024Z,10.8
2019-05-29T05:08:37.377Z,10.7
2019-05-29T05:09:36.135Z,10.5
2019-05-29T05:10:36.244Z,10.5
2019-05-29T05:11:36.223Z,10.5
2019-05-29T05:12:36.244Z,10.4
2019-05-29T05:13:36.300Z,10.4
2019-05-29T05:14:36.364Z,10.4
2019-05-29T05:15:36.437Z,10.6
2019-05-29T05:16:36.484Z,10.7
2019-05-29T05:17:36.484Z,10.6
2019-05-29T05:18:40.020Z,10.5
2019-05-29T05:19:36.597Z,10.3
2019-05-29T05:20:36.635Z,10.4
2019-05-29T05:21:36.693Z,10.5
2019-05-29T05:22:36.772Z,10.4
2019-05-29T05:23:36.726Z,10.5
2019-05-29T05:24:40.375Z,10.8
2019-05-29T05:25:36.843Z,11
2019-05-29T05:26:36.963Z,11.1
2019-05-29T05:27:36.955Z,11
2019-05-29T05:28:37.019Z,10.8
2019-05-29T05:29:37.059Z,10.7
2019-05-29T05:30:37.132Z,10.7
2019-05-29T05:31:37.172Z,10.8
2019-05-29T05:32:37.217Z,11
2019-05-29T05:33:37.295Z,11.1
2019-05-29T05:34:37.294Z,11
2019-05-29T05:35:37.388Z,11
2019-05-29T05:36:37.384Z,11.1
2019-05-29T05:37:37.442Z,11.3
2019-05-29T05:38:37.488Z,11.3
2019-05-29T05:39:38.955Z,11.2
2019-05-29T05:40:40.064Z,11.3
2019-05-29T05:41:37.626Z,11.2
2019-05-29T05:42:38.917Z,11.1
2019-05-29T05:43:38.756Z,11.3
2019-05-29T05:44:39.001Z,11.4
2019-05-29T05:45:39.110Z,11.3
2019-05-29T05:46:39.107Z,11.1
2019-05-29T05:47:49.405Z,11.3
2019-05-29T05:48:37.884Z,11.3
2019-05-29T05:49:37.958Z,11.3
2019-05-29T05:50:38.023Z,11.3
2019-05-29T05:51:41.058Z,11.4
2019-05-29T05:52:38.029Z,11.4
2019-05-29T05:53:38.088Z,11.5
2019-05-29T05:54:41.531Z,11.5
2019-05-29T05:55:38.223Z,11.4
2019-05-29T05:56:38.188Z,11.4
2019-05-29T05:57:38.204Z,11.3
2019-05-29T05:58:38.259Z,11.3
2019-05-29T05:59:38.314Z,11.3
2019-05-29T06:00:38.400Z,11.4
2019-05-29T06:01:38.388Z,11.4
2019-05-29T06:02:38.415Z,11.4
2019-05-29T06:03:38.443Z,11.5
2019-05-29T06:04:38.451Z,11.4
2019-05-29T06:05:38.520Z,11.4
2019-05-29T06:06:38.525Z,11.1
2019-05-29T06:07:38.543Z,11
2019-05-29T06:08:38.607Z,10.9
2019-05-29T06:09:38.617Z,10.7
2019-05-29T06:10:38.625Z,10.7
2019-05-29T06:11:38.642Z,10.7
2019-05-29T06:12:38.797Z,10.7
2019-05-29T06:13:38.656Z,10.8
2019-05-29T06:14:38.753Z,11
2019-05-29T06:15:38.729Z,11.1
2019-05-29T06:16:38.763Z,11.1
2019-05-29T06:17:38.848Z,11.1
2019-05-29T06:18:38.861Z,10.8
2019-05-29T06:19:39.055Z,10.5
2019-05-29T06:20:39.040Z,10.7
2019-05-29T06:21:38.879Z,10.8
2019-05-29T06:22:39.155Z,10.8
2019-05-29T06:23:38.971Z,10.9
2019-05-29T06:24:38.921Z,11.1
2019-05-29T06:25:40.327Z,11.2
2019-05-29T06:26:39.065Z,11.2
2019-05-29T06:27:39.254Z,11.2
2019-05-29T06:28:39.191Z,11.2
2019-05-29T06:29:39.321Z,11.4
2019-05-29T06:30:40.841Z,11.5
2019-05-29T06:31:39.358Z,11.5
2019-05-29T06:32:39.433Z,11.6
2019-05-29T06:33:39.506Z,11.6
2019-05-29T06:34:39.559Z,11.6
2019-05-29T06:35:39.602Z,11.7
2019-05-29T06:36:39.594Z,11.8
2019-05-29T06:37:39.621Z,11.8
2019-05-29T06:38:40.369Z,11.8
2019-05-29T06:39:39.635Z,11.7
2019-05-29T06:40:42.088Z,11.8
2019-05-29T06:41:40.081Z,11.7
2019-05-29T06:42:39.824Z,11.7
2019-05-29T06:43:39.843Z,11.7
2019-05-29T06:44:39.908Z,11.8
2019-05-29T06:45:39.946Z,11.7
2019-05-29T06:46:40.408Z,11.6
2019-05-29T06:47:40.724Z,11.4
2019-05-29T06:48:44.489Z,11.2
2019-05-29T06:49:40.089Z,11.3
2019-05-29T06:50:39.512Z,11.4
2019-05-29T06:51:39.414Z,11.4
2019-05-29T06:52:39.516Z,11.3
2019-05-29T06:53:39.780Z,11.1
2019-05-29T06:54:39.956Z,10.9
2019-05-29T06:55:39.834Z,11.1
2019-05-29T06:56:39.734Z,11.4
2019-05-29T06:57:40.228Z,11.5
2019-05-29T06:58:40.014Z,11.3
2019-05-29T06:59:40.426Z,11.2
2019-05-29T07:00:41.023Z,11.2
2019-05-29T07:01:39.637Z,11.1
2019-05-29T07:02:40.648Z,11.2
2019-05-29T07:03:39.772Z,11
2019-05-29T07:04:40.404Z,11
2019-05-29T07:05:39.925Z,10.9
2019-05-29T07:06:40.675Z,11
2019-05-29T07:07:40.276Z,11.2
2019-05-29T07:08:44.140Z,10.5
2019-05-29T07:09:40.931Z,10.9
2019-05-29T07:10:40.470Z,11.2
2019-05-29T07:11:41.231Z,11.2
2019-05-29T07:12:40.364Z,11.2
2019-05-29T07:13:42.817Z,10.6
2019-05-29T07:14:40.334Z,10.8
2019-05-29T07:15:40.730Z,10.9
2019-05-29T07:16:49.455Z,10.4
2019-05-29T07:17:40.492Z,10.6
2019-05-29T07:18:45.442Z,11.1
2019-05-29T07:19:53.786Z,11.1
2019-05-29T07:20:40.673Z,10.8
2019-05-29T07:21:40.870Z,10.8
2019-05-29T07:22:40.909Z,10.8
2019-05-29T07:23:41.212Z,11
2019-05-29T07:24:41.140Z,11.1
2019-05-29T07:25:40.888Z,10.5
2019-05-29T07:26:41.101Z,10.4
2019-05-29T07:27:40.895Z,10.4
2019-05-29T07:29:01.866Z,10.7
2019-05-29T07:29:41.156Z,10.9
2019-05-29T07:30:43.882Z,10.3
2019-05-29T07:31:41.012Z,9.9
2019-05-29T07:32:42.782Z,10.3
2019-05-29T07:33:41.135Z,10
2019-05-29T07:34:56.567Z,10.6
2019-05-29T07:35:41.419Z,11.2
2019-05-29T07:36:41.906Z,11.2
2019-05-29T07:37:41.672Z,11.3
2019-05-29T07:38:45.733Z,11.4
2019-05-29T07:39:41.523Z,11.3
2019-05-29T07:40:42.607Z,11.5
2019-05-29T07:41:41.712Z,11
2019-05-29T07:42:45.724Z,10
2019-05-29T07:43:41.829Z,9.8
2019-05-29T07:44:42.126Z,9.4
2019-05-29T07:45:42.157Z,9.5
2019-05-29T07:46:42.246Z,9.7
2019-05-29T07:47:42.459Z,9.7
2019-05-29T07:48:42.558Z,9.5
2019-05-29T07:49:44.736Z,9.8
2019-05-29T07:50:42.170Z,10.1
2019-05-29T07:51:43.294Z,9.9
2019-05-29T07:52:43.219Z,10.2
2019-05-29T07:53:42.245Z,10
2019-05-29T07:54:42.014Z,9.8
2019-05-29T07:55:42.563Z,9.3
2019-05-29T07:56:42.422Z,9.2
2019-05-29T07:57:42.756Z,9.5
2019-05-29T07:58:48.707Z,9.6
2019-05-29T07:59:42.654Z,9.5
2019-05-29T08:01:04.657Z,9.7
2019-05-29T08:01:42.772Z,9.6
2019-05-29T08:02:43.295Z,10.1
2019-05-29T08:03:43.447Z,10.2
2019-05-29T08:04:43.009Z,10
2019-05-29T08:05:46.108Z,9.4
2019-05-29T08:06:48.142Z,9.7
2019-05-29T08:07:43.368Z,9.8
2019-05-29T08:08:43.198Z,9.8
2019-05-29T08:09:43.588Z,10
2019-05-29T08:10:43.384Z,9.9
2019-05-29T08:11:43.524Z,9.8
2019-05-29T08:12:48.296Z,10.1
2019-05-29T08:13:43.579Z,10
2019-05-29T08:14:43.694Z,9.4
2019-05-29T08:15:53.826Z,9.3
2019-05-29T08:16:43.905Z,9.5
2019-05-29T08:17:43.922Z,9.8
2019-05-29T08:18:46.046Z,9
2019-05-29T08:19:59.127Z,9.4
2019-05-29T08:20:43.890Z,9.3
2019-05-29T08:21:44.196Z,9.4
2019-05-29T08:22:44.278Z,9.5
2019-05-29T08:23:44.258Z,9.1
2019-05-29T08:24:42.889Z,8.9
2019-05-29T08:25:43.405Z,9.1
2019-05-29T08:26:43.072Z,9.1
2019-05-29T08:27:42.965Z,9.2
2019-05-29T08:28:42.986Z,9.1
2019-05-29T08:29:42.988Z,9.5
2019-05-29T08:30:48.076Z,9.8
2019-05-29T08:31:46.729Z,9.3
2019-05-29T08:32:43.504Z,9.4
2019-05-29T08:33:43.069Z,9.6
2019-05-29T08:34:43.142Z,9.9
2019-05-29T08:35:43.202Z,9.7
2019-05-29T08:36:59.671Z,8.6
2019-05-29T08:37:43.123Z,8.5
2019-05-29T08:38:44.445Z,8.7
2019-05-29T08:39:43.381Z,9.7
2019-05-29T08:40:43.149Z,10
2019-05-29T08:41:47.463Z,9.1
2019-05-29T08:42:43.273Z,9.2
2019-05-29T08:43:45.142Z,9.4
2019-05-29T08:44:43.437Z,10
2019-05-29T08:45:43.447Z,10
2019-05-29T08:46:57.428Z,9.8
2019-05-29T08:47:43.527Z,9.6
2019-05-29T08:48:43.670Z,9.8
2019-05-29T08:49:43.686Z,9.6
2019-05-29T08:50:43.652Z,9.6
2019-05-29T08:51:43.866Z,9.6
2019-05-29T08:52:43.889Z,9.3
2019-05-29T08:53:44.105Z,8.7
2019-05-29T08:54:43.941Z,9
2019-05-29T08:55:44.159Z,9.4
2019-05-29T08:56:44.246Z,9.2
2019-05-29T08:57:44.200Z,9.1
2019-05-29T08:58:44.363Z,9.1
2019-05-29T08:59:44.393Z,9
2019-05-29T09:00:47.118Z,9.5
2019-05-29T09:01:45.068Z,8.3
2019-05-29T09:02:44.608Z,9.1
2019-05-29T09:03:44.842Z,8.5
2019-05-29T09:04:44.653Z,8.4
2019-05-29T09:05:44.519Z,8.6
2019-05-29T09:06:44.675Z,8.1
2019-05-29T09:07:45.850Z,8.7
2019-05-29T09:08:46.180Z,8.4
2019-05-29T09:09:44.860Z,8.1
2019-05-29T09:10:45.200Z,7.9
2019-05-29T09:11:45.204Z,9.2
2019-05-29T09:12:46.808Z,9
2019-05-29T09:13:44.956Z,8.3
2019-05-29T09:14:44.518Z,8.1
2019-05-29T09:15:44.575Z,8.7
2019-05-29T09:16:44.552Z,8.7
2019-05-29T09:17:44.638Z,9.2
2019-05-29T09:18:44.689Z,8.4
2019-05-29T09:19:44.623Z,8.6
2019-05-29T09:21:01.497Z,9
2019-05-29T09:21:44.693Z,8.3
2019-05-29T09:22:44.741Z,9
2019-05-29T09:23:44.824Z,9
2019-05-29T09:24:45.801Z,9.1
2019-05-29T09:25:44.813Z,9
2019-05-29T09:26:46.483Z,8
2019-05-29T09:27:44.937Z,9.1
2019-05-29T09:28:45.003Z,8.3
2019-05-29T09:29:45.010Z,8.3
2019-05-29T09:30:45.061Z,8.8
2019-05-29T09:31:45.110Z,8.5
2019-05-29T09:32:50.745Z,8.3
2019-05-29T09:33:45.170Z,8.2
2019-05-29T09:34:47.564Z,7.7
2019-05-29T09:35:45.216Z,7.6
2019-05-29T09:36:45.394Z,7.3
2019-05-29T09:37:45.313Z,7.7
2019-05-29T09:38:45.417Z,7.8
2019-05-29T09:40:45.652Z,7.8
2019-05-29T09:41:45.455Z,8
2019-05-29T09:42:45.446Z,8
2019-05-29T09:43:57.992Z,7.5
2019-05-29T09:44:45.466Z,7.2
2019-05-29T09:45:45.542Z,7.3
2019-05-29T09:46:45.505Z,6.9
2019-05-29T09:47:45.558Z,7.4
2019-05-29T09:48:49.446Z,7.6
2019-05-29T09:49:45.592Z,7.6
2019-05-29T09:50:49.864Z,7.6
2019-05-29T09:51:45.730Z,7.6
2019-05-29T09:52:45.718Z,7.8
2019-05-29T09:53:45.849Z,8.1
2019-05-29T09:54:45.730Z,7.7
2019-05-29T09:55:45.675Z,7.6
2019-05-29T09:56:45.794Z,7.1
2019-05-29T09:57:45.768Z,7.1
2019-05-29T09:58:45.770Z,7
2019-05-29T09:59:45.781Z,7.8
2019-05-29T10:00:45.855Z,8.4
2019-05-29T10:01:45.832Z,8.5
2019-05-29T10:02:46.093Z,7.2
2019-05-29T10:03:45.879Z,8
2019-05-29T10:04:45.872Z,8.4
2019-05-29T10:05:45.963Z,8.7
2019-05-29T10:06:45.875Z,8.7
2019-05-29T10:07:45.956Z,7.7
2019-05-29T10:08:45.931Z,8.4
2019-05-29T10:09:45.912Z,8.5
2019-05-29T10:10:46.100Z,8.5
2019-05-29T10:11:45.971Z,8.4
2019-05-29T10:12:46.001Z,7.8
2019-05-29T10:13:45.969Z,7
2019-05-29T10:14:46.038Z,6.7
2019-05-29T10:15:45.991Z,7.5
2019-05-29T10:16:45.987Z,7.4
2019-05-29T10:17:46.072Z,6.9
2019-05-29T10:18:45.980Z,7.1
2019-05-29T10:19:46.263Z,7.1
2019-05-29T10:20:46.069Z,7
2019-05-29T10:21:46.077Z,7.5
2019-05-29T10:22:46.229Z,7.4
2019-05-29T10:23:46.210Z,7.5
2019-05-29T10:24:46.298Z,7.2
2019-05-29T10:25:46.483Z,7.5
2019-05-29T10:26:47.388Z,7.1
2019-05-29T10:27:46.620Z,7.3
2019-05-29T10:28:58.719Z,7.1
2019-05-29T10:29:48.748Z,7.5
2019-05-29T10:30:48.150Z,7.5
2019-05-29T10:31:47.630Z,7.2
2019-05-29T10:32:46.513Z,7
2019-05-29T10:33:46.652Z,7.2
2019-05-29T10:34:46.714Z,7.5
2019-05-29T10:35:49.075Z,7.5
2019-05-29T10:36:49.589Z,7.2
2019-05-29T10:37:46.816Z,6.7
2019-05-29T10:38:46.830Z,6.9
2019-05-29T10:39:46.888Z,7.1
2019-05-29T10:40:56.316Z,7.5
2019-05-29T10:41:46.908Z,7.4
2019-05-29T10:42:47.195Z,7.1
2019-05-29T10:43:47.163Z,6.6
2019-05-29T10:44:47.562Z,7.3
2019-05-29T10:45:47.968Z,7.2
2019-05-29T10:47:02.547Z,8.2
2019-05-29T10:47:47.603Z,8
2019-05-29T10:48:49.201Z,7.3
2019-05-29T10:49:47.681Z,7.7
2019-05-29T10:50:50.270Z,7.1
2019-05-29T10:52:00.102Z,7
2019-05-29T10:52:47.877Z,7.2
2019-05-29T10:53:49.560Z,7.2
2019-05-29T10:54:48.120Z,6.9
2019-05-29T10:55:48.566Z,6.5
2019-05-29T10:56:48.743Z,7.8
2019-05-29T10:57:48.814Z,7.1
2019-05-29T10:58:51.938Z,6.7
2019-05-29T10:59:48.381Z,7.2
2019-05-29T11:00:49.011Z,6.6
2019-05-29T11:01:47.852Z,6.2
2019-05-29T11:02:48.096Z,6.6
2019-05-29T11:03:47.733Z,6.5
2019-05-29T11:04:51.889Z,6.8
2019-05-29T11:05:47.815Z,7.2
2019-05-29T11:06:48.112Z,7
2019-05-29T11:07:47.913Z,6.8
2019-05-29T11:08:48.041Z,6.8
2019-05-29T11:09:48.538Z,6.4
2019-05-29T11:10:47.995Z,6.7
2019-05-29T11:11:48.361Z,6.8
2019-05-29T11:12:48.434Z,6.2
2019-05-29T11:13:48.605Z,6.6
2019-05-29T11:14:48.532Z,6.8
2019-05-29T11:15:48.540Z,6.9
2019-05-29T11:16:48.989Z,7
2019-05-29T11:17:48.990Z,7.6
2019-05-29T11:18:49.131Z,6.6
2019-05-29T11:19:49.187Z,6.4
2019-05-29T11:20:49.320Z,6.9
2019-05-29T11:21:49.636Z,6.8
2019-05-29T11:22:49.461Z,5.9
2019-05-29T11:23:49.735Z,6.2
2019-05-29T11:24:49.924Z,6.8
2019-05-29T11:25:48.456Z,6.1
2019-05-29T11:26:48.507Z,7.1
2019-05-29T11:27:48.585Z,6
2019-05-29T11:28:48.587Z,6.9
2019-05-29T11:29:48.806Z,6.2
2019-05-29T11:30:48.722Z,6.7
2019-05-29T11:31:48.639Z,6.5
2019-05-29T11:32:50.101Z,6.5
2019-05-29T11:33:48.854Z,7.3
2019-05-29T11:34:48.952Z,6.9
2019-05-29T11:36:00.471Z,7.4
2019-05-29T11:36:49.880Z,6.5
2019-05-29T11:37:48.785Z,5.7
2019-05-29T11:38:48.784Z,6.8
2019-05-29T11:39:48.897Z,5.9
2019-05-29T11:40:49.406Z,6.2
2019-05-29T11:41:48.889Z,7
2019-05-29T11:42:48.890Z,7.3
2019-05-29T11:43:48.929Z,6.8
2019-05-29T11:44:49.006Z,7.3
2019-05-29T11:45:48.956Z,6.4
2019-05-29T11:46:50.118Z,5.5
2019-05-29T11:47:48.998Z,5.8
2019-05-29T11:48:49.031Z,5.8
2019-05-29T11:49:49.072Z,5.6
2019-05-29T11:50:49.983Z,5.2
2019-05-29T11:51:49.087Z,5.8
2019-05-29T11:52:50.176Z,6.2
2019-05-29T11:53:49.094Z,6.2
2019-05-29T11:54:52.291Z,5.8
2019-05-29T11:55:49.186Z,6.2
2019-05-29T11:56:49.135Z,5.8
2019-05-29T11:57:49.174Z,6.5
2019-05-29T11:58:49.178Z,6.4
2019-05-29T11:59:49.196Z,6.6
2019-05-29T12:00:49.251Z,6.7
2019-05-29T12:01:50.793Z,5.9
2019-05-29T12:02:49.276Z,6.4
2019-05-29T12:04:12.598Z,6.2
2019-05-29T12:04:49.241Z,6
2019-05-29T12:05:49.278Z,5.8
2019-05-29T12:06:49.269Z,6.5
2019-05-29T12:07:49.352Z,6.4
2019-05-29T12:08:49.352Z,6
2019-05-29T12:09:49.268Z,6.4
2019-05-29T12:10:49.262Z,6.5
2019-05-29T12:11:49.390Z,6.4
2019-05-29T12:12:49.304Z,6.5
2019-05-29T12:13:49.366Z,6.7
2019-05-29T12:15:00.056Z,6.5
2019-05-29T12:15:49.354Z,6.6
2019-05-29T12:16:49.405Z,6.6
2019-05-29T12:17:49.461Z,6.6
2019-05-29T12:18:49.533Z,6.8
2019-05-29T12:19:49.531Z,7.2
2019-05-29T12:20:49.557Z,6.4
2019-05-29T12:21:49.616Z,6.7
2019-05-29T12:23:12.397Z,5.8
2019-05-29T12:23:49.797Z,5.8
2019-05-29T12:24:49.790Z,5.3
2019-05-29T12:26:12.362Z,5.7
2019-05-29T12:26:49.970Z,5.7
2019-05-29T12:27:49.946Z,6.2
2019-05-29T12:28:50.784Z,6.1
2019-05-29T12:29:51.092Z,7
2019-05-29T12:30:50.050Z,7
2019-05-29T12:31:50.097Z,5.8
2019-05-29T12:32:50.153Z,5.8
2019-05-29T12:33:50.231Z,6.2
2019-05-29T12:34:53.357Z,6.2
2019-05-29T12:35:50.454Z,6.6
2019-05-29T12:36:50.369Z,6.2
2019-05-29T12:37:50.421Z,5.7
2019-05-29T12:38:50.605Z,6.1
2019-05-29T12:39:50.546Z,6.2
2019-05-29T12:40:50.600Z,6.4
2019-05-29T12:41:50.677Z,6.8
2019-05-29T12:42:50.712Z,5.9
2019-05-29T12:43:50.815Z,6.2
2019-05-29T12:44:50.796Z,6.6
2019-05-29T12:45:50.878Z,5.8
2019-05-29T12:46:50.863Z,6.4
2019-05-29T12:47:50.871Z,5.8
2019-05-29T12:48:50.968Z,6.1
2019-05-29T12:49:50.969Z,5.3
2019-05-29T12:50:51.056Z,5.6
2019-05-29T12:51:51.082Z,6.5
2019-05-29T12:52:51.136Z,7.1
2019-05-29T12:53:51.208Z,6.5
2019-05-29T12:54:53.898Z,6.2
2019-05-29T12:55:51.302Z,7.1
2019-05-29T12:56:51.320Z,5.6
2019-05-29T12:57:51.335Z,6.4
2019-05-29T12:58:51.624Z,5.8
2019-05-29T12:59:51.782Z,6.2
2019-05-29T13:00:51.674Z,7
2019-05-29T13:01:51.566Z,5.6
2019-05-29T13:02:51.655Z,6.1
2019-05-29T13:03:51.698Z,5.7
2019-05-29T13:05:15.887Z,6.6
2019-05-29T13:05:51.795Z,5.2
2019-05-29T13:06:51.789Z,5.8
2019-05-29T13:07:51.871Z,6.1
2019-05-29T13:08:51.903Z,5.6
2019-05-29T13:09:51.918Z,5.4
2019-05-29T13:10:52.021Z,5.1
2019-05-29T13:11:52.012Z,6.4
2019-05-29T13:12:52.188Z,5.8
2019-05-29T13:13:52.099Z,6
2019-05-29T13:14:52.142Z,5.2
2019-05-29T13:15:52.193Z,6.5
2019-05-29T13:16:52.220Z,6.3
2019-05-29T13:17:54.737Z,6.4
2019-05-29T13:18:52.235Z,6.4
2019-05-29T13:19:52.365Z,4.3
2019-05-29T13:20:52.372Z,5
2019-05-29T13:21:52.304Z,6
2019-05-29T13:22:52.372Z,4.9
2019-05-29T13:23:52.463Z,5.9
2019-05-29T13:24:52.983Z,5.2
2019-05-29T13:25:52.510Z,4.4
2019-05-29T13:26:52.500Z,5.7
2019-05-29T13:27:52.540Z,4.8
2019-05-29T13:28:52.621Z,4.2
2019-05-29T13:29:56.372Z,4.4
2019-05-29T13:30:52.630Z,4.9
2019-05-29T13:31:55.606Z,4.8
2019-05-29T13:32:52.756Z,4.4
2019-05-29T13:33:52.778Z,4.8
2019-05-29T13:34:52.759Z,4.6
2019-05-29T13:35:52.814Z,5.2
2019-05-29T13:36:52.877Z,4.9
2019-05-29T13:37:52.909Z,4.7